Time;durP1;ratioP1;P1;durP2;ratioP2;P2;SDS_P1;SDS_P2;PMS_P1;PMS_P2;Temp;Humidity;BMP_temperature;BMP_pressure;BME280_temperature;BME280_humidity;BME280_pressure;Samples;Min_cycle;Max_cycle;Signal;HPM_P1;HPM_P2
2023/12/31 00:07:07;;;;;;;;;;;;;;;;;;;;;
2023/12/31 00:10:09;;;;;;;;;;;;;;;;;;;;;
2023/12/31 00:13:01;;;;;;;3.40;2.00;;;;;;;;;;4898892;29;20045;-78
2023/12/31 00:22:22;;;;;;;;;;;;;;;;;;;;;
2023/12/31 00:28:14;;;;;;;;;;;;;;;;;;;;;
2023/12/31 00:31:18;;;;;;;5.13;1.73;;;;;;;;;;5016754;28;20046;-78
2023/12/31 00:33:54;;;;;;;2.80;1.90;;;;;;;;;;4992539;28;20018;-79
2023/12/31 00:40:21;;;;;;;2.83;1.67;;;;;;;;;;4968303;28;20026;-79
2023/12/31 00:43:16;;;;;;;3.03;1.57;;;;;;;;;;4985213;28;20115;-79
2023/12/31 00:48:50;;;;;;;2.70;1.70;;;;;;;;;;5009945;28;20077;-79
2023/12/31 00:51:48;;;;;;;;;;;;;;;;;;;;;
2023/12/31 00:54:39;;;;;;;2.87;1.70;;;;;;;;;;5006888;28;20042;-79
2023/12/31 00:57:24;;;;;;;6.90;2.07;;;;;;;;;;4999115;28;20018;-79
2023/12/31 01:00:04;;;;;;;2.97;1.83;;;;;;;;;;4993836;28;20019;-79
2023/12/31 01:06:03;;;;;;;3.93;2.33;;;;;;;;;;4958311;28;20042;-79
2023/12/31 01:09:00;;;;;;;;;;;;;;;;;;;;;
2023/12/31 01:11:36;;;;;;;4.20;1.90;;;;;;;;;;5004995;28;20039;-79
2023/12/31 01:14:18;;;;;;;3.13;1.60;;;;;;;;;;5008047;28;20026;-79
2023/12/31 01:16:56;;;;;;;;;;;;;;;;;;;;;
2023/12/31 01:19:27;;;;;;;5.43;1.80;;;;;;;;;;5005942;28;20038;-79
2023/12/31 01:21:58;;;;;;;2.43;1.60;;;;;;;;;;4996713;28;20050;-80
2023/12/31 01:24:48;;;;;;;1.70;1.10;;;;;;;;;;4991091;28;20026;-79
2023/12/31 01:27:34;;;;;;;7.43;1.10;;;;;;;;;;4989211;28;20074;-79
2023/12/31 01:30:00;;;;;;;2.83;1.23;;;;;;;;;;4995203;28;20022;-79
2023/12/31 01:32:33;;;;;;;2.47;1.20;;;;;;;;;;4994179;28;20038;-79
2023/12/31 01:35:18;;;;;;;;;;;;;;;;;;;;;
2023/12/31 01:38:13;;;;;;;2.90;1.20;;;;;;;;;;5007784;28;20062;-79
2023/12/31 01:40:53;;;;;;;1.50;1.00;;;;;;;;;;4990663;28;20047;-78
2023/12/31 01:43:19;;;;;;;6.47;1.30;;;;;;;;;;4995074;28;20022;-78
2023/12/31 01:45:55;;;;;;;1.90;1.20;;;;;;;;;;4990669;28;20044;-79
2023/12/31 01:48:30;;;;;;;1.77;1.00;;;;;;;;;;4997005;28;20039;-78
2023/12/31 01:51:11;;;;;;;1.90;1.10;;;;;;;;;;4997266;28;20035;-78
2023/12/31 01:53:45;;;;;;;3.77;1.47;;;;;;;;;;5005250;28;20078;-79
2023/12/31 01:56:17;;;;;;;1.57;1.20;;;;;;;;;;5005829;28;20050;-79
2023/12/31 01:59:03;;;;;;;3.22;0.77;;;;;;;;;;4994950;28;20019;-79
2023/12/31 02:01:35;;;;;;;2.23;1.23;;;;;;;;;;4990864;28;20031;-78
2023/12/31 02:04:20;;;;;;;1.75;1.13;;;;;;;;;;5006592;28;20026;-78
2023/12/31 02:09:53;;;;;;;2.33;1.43;;;;;;;;;;5005453;28;20256;-78
2023/12/31 02:18:28;;;;;;;3.10;1.33;;;;;;;;;;5015119;28;20101;-79
2023/12/31 02:21:03;;;;;;;3.40;1.50;;;;;;;;;;5007749;28;20019;-78
2023/12/31 02:23:36;;;;;;;3.70;1.80;;;;;;;;;;4989987;28;20054;-79
2023/12/31 02:26:27;;;;;;;2.53;1.70;;;;;;;;;;4996720;28;20026;-78
2023/12/31 02:28:58;;;;;;;3.40;1.90;;;;;;;;;;4995754;28;20014;-79
2023/12/31 02:31:35;;;;;;;3.73;2.50;;;;;;;;;;4987862;28;20014;-78
2023/12/31 02:34:01;;;;;;;4.30;1.70;;;;;;;;;;4996668;28;20187;-79
2023/12/31 02:36:30;;;;;;;3.07;2.10;;;;;;;;;;4995173;28;20023;-79
2023/12/31 02:39:19;;;;;;;4.03;2.40;;;;;;;;;;4996661;28;20033;-78
2023/12/31 02:41:49;;;;;;;6.27;2.40;;;;;;;;;;5013428;28;20151;-79
2023/12/31 02:44:23;;;;;;;6.33;2.00;;;;;;;;;;4997297;28;20117;-78
2023/12/31 02:46:56;;;;;;;3.93;2.20;;;;;;;;;;4998734;28;20030;-78
2023/12/31 02:49:35;;;;;;;;;;;;;;;;;;;;;
2023/12/31 02:52:06;;;;;;;4.80;2.43;;;;;;;;;;5016735;28;20034;-79
2023/12/31 02:55:03;;;;;;;4.13;2.40;;;;;;;;;;4995583;28;20144;-79
2023/12/31 02:57:35;;;;;;;5.20;2.10;;;;;;;;;;4998440;28;20019;-78
2023/12/31 03:00:06;;;;;;;3.05;1.90;;;;;;;;;;4999294;28;20022;-78
2023/12/31 03:05:29;;;;;;;2.25;1.60;;;;;;;;;;5008923;28;20018;-79
2023/12/31 03:10:46;;;;;;;3.83;2.00;;;;;;;;;;5006229;28;20027;-78
2023/12/31 03:16:24;;;;;;;2.87;1.70;;;;;;;;;;5011427;28;20038;-79
2023/12/31 03:19:05;;;;;;;;;;;;;;;;;;;;;
2023/12/31 03:21:51;;;;;;;1.97;1.47;;;;;;;;;;5017436;28;20046;-79
2023/12/31 03:24:38;;;;;;;2.43;1.67;;;;;;;;;;4997382;28;20050;-79
2023/12/31 03:27:08;;;;;;;5.13;2.40;;;;;;;;;;4985956;28;20018;-79
2023/12/31 03:29:37;;;;;;;4.50;2.30;;;;;;;;;;4997764;28;20015;-79
2023/12/31 03:32:17;;;;;;;3.37;2.13;;;;;;;;;;4997162;28;20022;-79
2023/12/31 03:34:46;;;;;;;2.83;1.67;;;;;;;;;;4999155;28;20026;-78
2023/12/31 03:37:12;;;;;;;3.53;2.00;;;;;;;;;;4998134;28;20023;-79
2023/12/31 03:39:40;;;;;;;2.93;2.00;;;;;;;;;;4995979;28;20026;-79
2023/12/31 03:42:09;;;;;;;3.27;2.23;;;;;;;;;;4997655;28;20053;-79
2023/12/31 03:44:37;;;;;;;4.17;1.70;;;;;;;;;;4996625;28;20018;-78
2023/12/31 03:47:06;;;;;;;5.17;1.57;;;;;;;;;;4998232;28;20015;-79
2023/12/31 03:49:37;;;;;;;4.33;2.17;;;;;;;;;;4999851;28;20077;-78
2023/12/31 03:52:20;;;;;;;;;;;;;;;;;;;;;
2023/12/31 03:58:06;;;;;;;6.17;2.20;;;;;;;;;;5043910;23;20117;-79
2023/12/31 04:00:41;;;;;;;4.07;1.87;;;;;;;;;;4977171;28;20027;-80
2023/12/31 04:03:13;;;;;;;3.20;2.03;;;;;;;;;;4975622;28;20039;-79
2023/12/31 04:05:47;;;;;;;5.28;2.17;;;;;;;;;;4978363;28;20035;-78
2023/12/31 04:11:22;;;;;;;3.03;1.50;;;;;;;;;;4979383;28;20057;-79
2023/12/31 04:13:53;;;;;;;3.87;1.73;;;;;;;;;;4992301;28;20074;-79
2023/12/31 04:16:22;;;;;;;3.33;1.83;;;;;;;;;;4975890;28;20026;-79
2023/12/31 04:19:08;;;;;;;3.33;1.77;;;;;;;;;;4976555;28;20034;-79
2023/12/31 04:21:39;;;;;;;4.07;2.00;;;;;;;;;;4976253;28;20054;-79
2023/12/31 04:24:05;;;;;;;3.83;1.77;;;;;;;;;;4972979;28;20027;-79
2023/12/31 04:26:34;;;;;;;3.67;1.63;;;;;;;;;;4976059;28;20034;-79
2023/12/31 04:29:09;;;;;;;4.80;2.13;;;;;;;;;;4975844;28;20011;-79
2023/12/31 04:31:45;;;;;;;3.80;1.67;;;;;;;;;;4976370;28;20014;-78
2023/12/31 04:34:16;;;;;;;4.80;1.77;;;;;;;;;;4973365;28;20039;-78
2023/12/31 04:36:54;;;;;;;3.87;1.70;;;;;;;;;;4976341;28;20027;-79
2023/12/31 04:39:28;;;;;;;4.70;1.70;;;;;;;;;;4978489;28;21393;-79
2023/12/31 04:42:01;;;;;;;2.57;1.47;;;;;;;;;;4977440;28;20019;-79
2023/12/31 04:44:29;;;;;;;4.63;1.90;;;;;;;;;;5050916;23;20027;-81
2023/12/31 04:47:00;;;;;;;4.37;2.03;;;;;;;;;;4999018;28;20035;-79
2023/12/31 04:49:36;;;;;;;3.03;1.60;;;;;;;;;;5010134;28;20054;-79
2023/12/31 04:52:02;;;;;;;3.87;2.10;;;;;;;;;;5000229;28;20022;-79
2023/12/31 04:54:30;;;;;;;4.00;1.70;;;;;;;;;;4987341;28;20035;-78
2023/12/31 04:56:59;;;;;;;2.97;1.40;;;;;;;;;;4991455;28;20031;-79
2023/12/31 04:59:30;;;;;;;3.00;1.37;;;;;;;;;;4991077;28;20011;-80
2023/12/31 05:02:06;;;;;;;3.93;1.30;;;;;;;;;;5000645;28;20061;-79
2023/12/31 05:04:34;;;;;;;3.50;1.83;;;;;;;;;;5000553;28;20032;-78
2023/12/31 05:07:02;;;;;;;4.03;1.53;;;;;;;;;;5000977;28;20030;-79
2023/12/31 05:09:33;;;;;;;3.97;1.40;;;;;;;;;;4996574;28;20046;-79
2023/12/31 05:12:04;;;;;;;4.17;1.80;;;;;;;;;;4986941;28;20011;-79
2023/12/31 05:14:32;;;;;;;3.97;1.50;;;;;;;;;;4994081;28;20053;-78
2023/12/31 05:17:03;;;;;;;3.20;1.63;;;;;;;;;;5021187;28;20013;-79
2023/12/31 05:19:34;;;;;;;3.70;1.33;;;;;;;;;;5000582;28;20030;-78
2023/12/31 05:22:17;;;;;;;4.37;1.50;;;;;;;;;;4999915;28;20049;-79
2023/12/31 05:24:46;;;;;;;1.63;1.13;;;;;;;;;;5006023;28;20115;-79
2023/12/31 05:27:14;;;;;;;3.60;1.47;;;;;;;;;;4999045;28;20018;-78
2023/12/31 05:30:01;;;;;;;4.27;1.33;;;;;;;;;;4995138;28;20010;-79
2023/12/31 05:32:32;;;;;;;2.00;1.10;;;;;;;;;;5014058;28;20025;-79
2023/12/31 05:35:08;;;;;;;1.83;1.00;;;;;;;;;;5009098;28;20035;-79
2023/12/31 05:37:44;;;;;;;;;;;;;;;;;;;;;
2023/12/31 05:40:18;;;;;;;3.87;1.40;;;;;;;;;;5011022;28;20038;-80
2023/12/31 05:45:38;;;;;;;2.40;1.43;;;;;;;;;;5010428;28;20023;-79
2023/12/31 05:48:22;;;;;;;5.00;1.33;;;;;;;;;;5005471;28;20029;-79
2023/12/31 05:51:08;;;;;;;2.30;1.40;;;;;;;;;;4999208;28;20030;-79
2023/12/31 05:53:40;;;;;;;3.30;1.40;;;;;;;;;;5000901;28;20094;-79
2023/12/31 05:56:10;;;;;;;2.67;1.60;;;;;;;;;;5000485;28;20090;-78
2023/12/31 06:01:58;;;;;;;2.87;1.30;;;;;;;;;;5018590;28;20034;-78
2023/12/31 06:04:31;;;;;;;2.97;1.33;;;;;;;;;;5002617;28;20017;-80
2023/12/31 06:07:15;;;;;;;2.43;1.57;;;;;;;;;;4997500;28;20026;-80
2023/12/31 06:09:54;;;;;;;2.70;1.40;;;;;;;;;;4998816;28;20025;-78
2023/12/31 06:12:36;;;;;;;6.73;2.03;;;;;;;;;;5003336;28;20026;-79
2023/12/31 06:15:25;;;;;;;2.63;1.73;;;;;;;;;;4999212;28;20034;-79
2023/12/31 06:17:54;;;;;;;2.30;1.50;;;;;;;;;;4979981;28;20046;-79
2023/12/31 06:20:22;;;;;;;2.50;1.50;;;;;;;;;;4990931;28;20042;-79
2023/12/31 06:23:05;;;;;;;1.90;1.33;;;;;;;;;;4988448;28;20015;-79
2023/12/31 06:25:36;;;;;;;;;;;;;;;;;;5006812;28;20033;-79
2023/12/31 06:28:08;;;;;;;4.00;1.53;;;;;;;;;;4992715;28;19918;-79
2023/12/31 06:30:54;;;;;;;2.00;1.55;;;;;;;;;;4994921;28;20031;-78
2023/12/31 06:33:30;;;;;;;;;;;;;;;;;;;;;
2023/12/31 06:36:16;;;;;;;2.10;1.27;;;;;;;;;;5005710;28;20061;-79
2023/12/31 06:39:07;;;;;;;2.67;1.40;;;;;;;;;;4973163;28;20047;-79
2023/12/31 06:42:01;;;;;;;3.43;1.43;;;;;;;;;;4989330;28;20026;-79
2023/12/31 06:44:37;;;;;;;2.17;1.23;;;;;;;;;;5004635;28;20023;-79
2023/12/31 06:47:17;;;;;;;4.87;1.20;;;;;;;;;;4989831;28;20033;-79
2023/12/31 06:49:52;;;;;;;1.90;1.10;;;;;;;;;;4994126;28;20026;-79
2023/12/31 06:52:20;;;;;;;1.97;1.20;;;;;;;;;;4989756;28;20046;-78
2023/12/31 06:55:14;;;;;;;;;;;;;;;;;;;;;
2023/12/31 06:57:51;;;;;;;4.97;1.50;;;;;;;;;;5004801;28;20050;-79
2023/12/31 07:00:17;;;;;;;2.20;1.30;;;;;;;;;;4994443;28;20027;-79
2023/12/31 07:02:52;;;;;;;2.13;1.47;;;;;;;;;;4995396;28;20042;-79
2023/12/31 07:05:23;;;;;;;5.33;1.57;;;;;;;;;;4993950;28;20033;-79
2023/12/31 07:07:58;;;;;;;8.97;1.67;;;;;;;;;;5005784;28;20023;-79
2023/12/31 07:10:47;;;;;;;;;;;;;;;;;;;;;
2023/12/31 07:13:15;;;;;;;3.23;1.47;;;;;;;;;;5004661;28;20046;-79
2023/12/31 07:15:44;;;;;;;2.57;1.50;;;;;;;;;;5153599;23;20039;-79
2023/12/31 07:18:19;;;;;;;3.10;1.67;;;;;;;;;;4961217;29;20015;-79
2023/12/31 07:20:58;;;;;;;5.70;1.67;;;;;;;;;;4961176;28;20019;-79
2023/12/31 07:23:39;;;;;;;3.87;1.30;;;;;;;;;;4960942;28;20027;-79
2023/12/31 07:26:25;;;;;;;2.53;1.50;;;;;;;;;;4974067;28;20031;-79
2023/12/31 07:28:54;;;;;;;4.10;1.43;;;;;;;;;;4975367;28;20028;-79
2023/12/31 07:34:45;;;;;;;3.40;1.40;;;;;;;;;;4969537;28;20042;-79
2023/12/31 07:37:37;;;;;;;;;;;;;;;;;;;;;
2023/12/31 07:40:15;;;;;;;3.33;1.33;;;;;;;;;;4971244;28;20051;-79
2023/12/31 07:42:52;;;;;;;7.50;1.27;;;;;;;;;;4959958;28;20039;-79
2023/12/31 07:45:31;;;;;;;2.97;1.43;;;;;;;;;;4959477;28;20043;-79
2023/12/31 07:47:59;;;;;;;2.90;1.23;;;;;;;;;;4959051;29;20055;-79
2023/12/31 07:50:35;;;;;;;2.37;1.43;;;;;;;;;;4974455;28;20039;-79
2023/12/31 07:53:11;;;;;;;1.90;1.20;;;;;;;;;;4958758;28;20110;-79
2023/12/31 07:55:39;;;;;;;2.60;1.27;;;;;;;;;;4953146;28;20059;-79
2023/12/31 07:58:16;;;;;;;2.73;1.50;;;;;;;;;;4960817;28;20102;-79
2023/12/31 08:00:52;;;;;;;2.90;1.17;;;;;;;;;;4959175;28;20039;-79
2023/12/31 08:03:21;;;;;;;2.37;1.57;;;;;;;;;;4976186;28;20102;-79
2023/12/31 08:06:12;;;;;;;4.07;1.60;;;;;;;;;;4959564;28;20027;-78
2023/12/31 08:08:59;;;;;;;2.70;1.63;;;;;;;;;;4954661;28;20028;-80
2023/12/31 08:11:37;;;;;;;;;;;;;;;;;;;;;
2023/12/31 08:14:15;;;;;;;2.63;1.13;;;;;;;;;;4973672;28;20039;-79
2023/12/31 08:19:43;;;;;;;;;;;;;;;;;;;;;
2023/12/31 08:22:24;;;;;;;1.47;1.03;;;;;;;;;;4974694;28;20054;-79
2023/12/31 08:25:03;;;;;;;4.43;1.40;;;;;;;;;;4958121;28;20035;-78
2023/12/31 08:27:43;;;;;;;4.20;1.40;;;;;;;;;;4974465;28;20061;-79
2023/12/31 08:30:17;;;;;;;3.50;1.50;;;;;;;;;;4959441;28;20035;-79
2023/12/31 08:32:53;;;;;;;3.20;1.80;;;;;;;;;;4954585;28;20035;-79
2023/12/31 08:35:37;;;;;;;2.37;1.20;;;;;;;;;;4973475;28;20095;-78
2023/12/31 08:38:33;;;;;;;;;;;;;;;;;;;;;
2023/12/31 08:41:08;;;;;;;1.90;1.20;;;;;;;;;;4974349;28;20034;-78
2023/12/31 08:43:43;;;;;;;3.10;1.63;;;;;;;;;;4969220;28;20024;-79
2023/12/31 08:47:00;;;;;;;;;;;;;;;;;;;;;
2023/12/31 08:49:32;;;;;;;;;;;;;;;;;;;;;
2023/12/31 08:52:06;;;;;;;4.28;1.88;;;;;;;;;;4975111;28;20040;-79
2023/12/31 08:54:34;;;;;;;3.37;1.53;;;;;;;;;;4958343;28;20092;-79
2023/12/31 08:57:03;;;;;;;2.63;1.43;;;;;;;;;;4959454;28;20027;-79
2023/12/31 08:59:52;;;;;;;2.57;1.37;;;;;;;;;;4973664;28;20063;-79
2023/12/31 09:02:18;;;;;;;2.97;1.40;;;;;;;;;;4956109;29;20042;-79
2023/12/31 09:05:18;;;;;;;2.27;1.70;;;;;;;;;;4954512;28;20040;-79
2023/12/31 09:07:53;;;;;;;;;;;;;;;;;;;;;
2023/12/31 09:10:49;;;;;;;3.83;1.70;;;;;;;;;;4972707;28;20050;-79
2023/12/31 09:13:22;;;;;;;4.13;1.40;;;;;;;;;;4956557;28;20019;-79
2023/12/31 09:15:55;;;;;;;3.27;1.63;;;;;;;;;;5082306;23;20035;-78
2023/12/31 09:18:33;;;;;;;3.57;1.73;;;;;;;;;;4961657;29;20003;-79
2023/12/31 09:21:33;;;;;;;3.37;2.23;;;;;;;;;;4970657;28;20015;-80
2023/12/31 09:24:16;;;;;;;;;;;;;;;;;;;;;
2023/12/31 09:27:13;;;;;;;;;;;;;;;;;;;;;
2023/12/31 09:30:06;;;;;;;3.10;2.00;;;;;;;;;;4973040;28;20058;-80
2023/12/31 09:32:42;;;;;;;3.97;2.17;;;;;;;;;;4974952;28;20020;-78
2023/12/31 09:35:19;;;;;;;3.77;2.17;;;;;;;;;;4973149;28;20031;-78
2023/12/31 09:37:55;;;;;;;2.53;1.87;;;;;;;;;;4973699;28;20075;-78
2023/12/31 09:40:24;;;;;;;3.67;2.10;;;;;;;;;;4974374;28;20015;-78
2023/12/31 09:42:59;;;;;;;2.60;1.50;;;;;;;;;;4960732;28;20026;-79
2023/12/31 09:45:27;;;;;;;2.53;1.80;;;;;;;;;;5144759;23;20030;-79
2023/12/31 09:48:22;;;;;;;2.57;1.87;;;;;;;;;;4985473;28;20080;-79
2023/12/31 09:50:49;;;;;;;3.97;2.07;;;;;;;;;;4998552;28;20043;-79
2023/12/31 09:53:18;;;;;;;4.00;2.23;;;;;;;;;;4994729;28;20305;-78
2023/12/31 09:55:54;;;;;;;6.17;2.27;;;;;;;;;;4999027;28;20030;-78
2023/12/31 10:01:34;;;;;;;;;;;;;;;;;;;;;
2023/12/31 10:04:10;;;;;;;3.00;1.70;;;;;;;;;;4998228;28;20058;-78
2023/12/31 10:06:52;;;;;;;;;;;;;;;;;;;;;
2023/12/31 10:09:45;;;;;;;3.75;1.67;;;;;;;;;;4999352;28;20064;-78
2023/12/31 10:15:47;;;;;;;;;;;;;;;;;;;;;
2023/12/31 10:18:36;;;;;;;2.17;1.60;;;;;;;;;;5037221;23;20035;-77
2023/12/31 10:21:11;;;;;;;2.73;1.50;;;;;;;;;;4990527;28;20015;-78
2023/12/31 10:24:05;;;;;;;4.23;2.00;;;;;;;;;;4975964;28;20028;-77
2023/12/31 10:26:42;;;;;;;3.57;1.00;;;;;;;;;;5033907;23;20031;-76
2023/12/31 10:29:16;;;;;;;1.90;0.80;;;;;;;;;;5000903;28;20575;-76
2023/12/31 10:31:59;;;;;;;0.97;0.60;;;;;;;;;;5002808;28;20006;-76
2023/12/31 10:37:16;;;;;;;2.10;0.67;;;;;;;;;;5015627;28;19898;-76
2023/12/31 10:39:55;;;;;;;3.10;0.70;;;;;;;;;;4999657;28;20014;-77
2023/12/31 10:42:36;;;;;;;1.57;0.50;;;;;;;;;;5000484;28;20022;-76
2023/12/31 10:45:32;;;;;;;;;;;;;;;;;;;;;
2023/12/31 10:48:28;;;;;;;0.73;0.53;;;;;;;;;;5002577;28;20030;-78
2023/12/31 10:51:05;;;;;;;3.13;0.73;;;;;;;;;;4991779;28;20026;-78
2023/12/31 10:53:58;;;;;;;1.23;0.63;;;;;;;;;;4991006;28;20027;-78
2023/12/31 10:56:45;;;;;;;2.08;0.60;;;;;;;;;;5013529;28;20053;-77
2023/12/31 10:59:16;;;;;;;1.70;0.93;;;;;;;;;;5018117;28;20011;-78
2023/12/31 11:02:23;;;;;;;0.93;0.50;;;;;;;;;;5000136;28;20026;-78
2023/12/31 11:04:57;;;;;;;0.33;0.30;;;;;;;;;;5013273;28;20086;-76
2023/12/31 11:07:44;;;;;;;2.33;0.63;;;;;;;;;;5001938;28;20006;-77
2023/12/31 11:10:18;;;;;;;1.07;0.50;;;;;;;;;;5002756;28;20017;-78
2023/12/31 11:13:12;;;;;;;;;;;;;;;;;;;;;
2023/12/31 11:15:47;;;;;;;1.07;0.40;;;;;;;;;;5014378;28;20019;-77
2023/12/31 11:18:40;;;;;;;0.90;0.30;;;;;;;;;;5001767;28;20014;-79
2023/12/31 11:21:44;;;;;;;3.23;0.53;;;;;;;;;;5001960;28;20025;-78
2023/12/31 11:24:18;;;;;;;1.47;0.50;;;;;;;;;;4961651;28;20115;-77
2023/12/31 11:27:10;;;;;;;2.43;0.60;;;;;;;;;;5002066;28;20028;-78
2023/12/31 11:29:46;;;;;;;1.60;0.30;;;;;;;;;;4998561;28;20062;-78
2023/12/31 11:35:15;;;;;;;1.30;0.40;;;;;;;;;;5012905;28;20034;-78
2023/12/31 11:37:43;;;;;;;1.13;0.40;;;;;;;;;;5018129;28;20015;-79
2023/12/31 11:40:14;;;;;;;1.73;0.73;;;;;;;;;;5005913;28;20081;-79
2023/12/31 11:42:43;;;;;;;1.03;0.27;;;;;;;;;;5005890;28;20058;-77
2023/12/31 11:45:29;;;;;;;1.97;0.30;;;;;;;;;;5056941;23;20040;-78
2023/12/31 11:48:03;;;;;;;0.50;0.30;;;;;;;;;;4962430;29;20020;-78
2023/12/31 11:50:36;;;;;;;0.90;0.30;;;;;;;;;;4980271;28;20018;-77
2023/12/31 11:53:13;;;;;;;;;;;;;;;;;;;;;
2023/12/31 11:56:00;;;;;;;1.07;0.30;;;;;;;;;;4976884;28;20027;-79
2023/12/31 11:58:54;;;;;;;1.27;0.30;;;;;;;;;;4965173;28;20023;-78
2023/12/31 12:01:25;;;;;;;0.30;0.20;;;;;;;;;;4963176;28;20022;-78
2023/12/31 12:04:00;;;;;;;0.30;0.10;;;;;;;;;;4973850;28;20055;-77
2023/12/31 12:06:46;;;;;;;1.27;0.27;;;;;;;;;;4976401;28;20039;-78
2023/12/31 12:09:23;;;;;;;0.43;0.20;;;;;;;;;;4978604;28;20026;-78
2023/12/31 12:11:51;;;;;;;1.10;0.30;;;;;;;;;;4963588;28;20027;-79
2023/12/31 12:14:21;;;;;;;0.60;0.30;;;;;;;;;;4974089;28;20043;-78
2023/12/31 12:16:51;;;;;;;0.50;0.20;;;;;;;;;;4978883;28;20035;-78
2023/12/31 12:19:27;;;;;;;0.77;0.30;;;;;;;;;;4958332;28;20024;-78
2023/12/31 12:22:01;;;;;;;3.30;0.20;;;;;;;;;;4969064;28;20083;-78
2023/12/31 12:24:28;;;;;;;0.50;0.20;;;;;;;;;;4972368;28;20086;-79
2023/12/31 12:27:08;;;;;;;;;;;;;;;;;;;;;
2023/12/31 12:29:41;;;;;;;1.37;0.53;;;;;;;;;;4973392;28;20035;-78
2023/12/31 12:32:28;;;;;;;2.95;0.30;;;;;;;;;;4971378;28;20042;-78
2023/12/31 12:34:59;;;;;;;1.23;0.27;;;;;;;;;;4972250;28;20079;-77
2023/12/31 12:37:29;;;;;;;0.37;0.20;;;;;;;;;;4973831;28;20008;-78
2023/12/31 12:40:05;;;;;;;1.50;0.53;;;;;;;;;;4972690;28;20023;-78
2023/12/31 12:42:49;;;;;;;1.87;0.87;;;;;;;;;;4971610;28;20015;-78
2023/12/31 12:45:32;;;;;;;2.53;1.43;;;;;;;;;;4960813;28;20589;-77
2023/12/31 12:48:07;;;;;;;4.77;1.00;;;;;;;;;;4974252;28;20054;-78
2023/12/31 12:50:33;;;;;;;1.13;0.40;;;;;;;;;;4972785;28;20048;-78
2023/12/31 12:53:02;;;;;;;2.77;0.60;;;;;;;;;;4973946;28;20027;-79
2023/12/31 12:55:35;;;;;;;3.67;0.77;;;;;;;;;;4976055;28;20075;-78
2023/12/31 12:58:01;;;;;;;2.83;0.50;;;;;;;;;;4982008;28;20046;-76
2023/12/31 13:06:53;;;;;;;;;;;;;;;;;;;;;
2023/12/31 13:09:19;;;;;;;1.93;0.30;;;;;;;;;;4977467;28;20047;-78
2023/12/31 13:11:58;;;;;;;;;;;;;;;;;;;;;
2023/12/31 13:14:27;;;;;;;7.33;0.57;;;;;;;;;;4984236;28;20015;-78
2023/12/31 13:17:03;;;;;;;6.30;0.97;;;;;;;;;;4977914;28;20039;-78
2023/12/31 13:19:51;;;;;;;2.20;0.60;;;;;;;;;;4978585;28;20046;-78
2023/12/31 13:22:20;;;;;;;3.37;0.40;;;;;;;;;;4976833;28;20019;-78
2023/12/31 13:25:14;;;;;;;;;;;;;;;;;;;;;
2023/12/31 13:31:24;;;;;;;;;;;;;;;;;;;;;
2023/12/31 13:34:19;;;;;;;4.10;0.70;;;;;;;;;;4997081;28;20086;-77
2023/12/31 13:37:04;;;;;;;;;;;;;;;;;;;;;
2023/12/31 13:40:13;;;;;;;1.27;0.20;;;;;;;;;;4995462;28;20053;-78
2023/12/31 13:42:46;;;;;;;2.53;0.30;;;;;;;;;;4996193;28;20029;-78
2023/12/31 13:45:38;;;;;;;6.90;0.70;;;;;;;;;;4979547;28;20056;-78
2023/12/31 13:48:15;;;;;;;2.87;0.50;;;;;;;;;;4994890;28;20035;-78
2023/12/31 13:50:57;;;;;;;;;;;;;;;;;;;;;
2023/12/31 13:56:45;;;;;;;;;;;;;;;;;;;;;
2023/12/31 14:02:21;;;;;;;2.00;0.57;;;;;;;;;;4991335;28;20027;-79
2023/12/31 14:05:03;;;;;;;11.73;1.77;;;;;;;;;;4983247;28;20027;-78
2023/12/31 14:13:22;;;;;;;7.70;1.20;;;;;;;;;;4984764;28;20022;-78
2023/12/31 14:15:53;;;;;;;5.77;0.70;;;;;;;;;;5051901;23;20131;-78
2023/12/31 14:18:38;;;;;;;;;;;;;;;;;;;;;
2023/12/31 14:21:33;;;;;;;6.97;1.53;;;;;;;;;;5005199;28;20010;-79
2023/12/31 14:24:12;;;;;;;4.50;0.93;;;;;;;;;;4996613;28;20057;-79
2023/12/31 14:27:07;;;;;;;6.83;1.67;;;;;;;;;;4997790;28;20102;-78
2023/12/31 14:30:15;;;;;;;8.40;1.57;;;;;;;;;;4983028;28;20054;-77
2023/12/31 14:32:52;;;;;;;8.27;1.93;;;;;;;;;;5005237;28;20084;-77
2023/12/31 14:35:35;;;;;;;5.70;1.47;;;;;;;;;;4994342;28;20031;-76
2023/12/31 14:38:44;;;;;;;9.53;1.57;;;;;;;;;;4994014;28;20089;-77
2023/12/31 14:44:30;;;;;;;;;;;;;;;;;;;;;
2023/12/31 14:47:33;;;;;;;8.67;1.57;;;;;;;;;;5007523;28;20018;-77
2023/12/31 14:50:14;;;;;;;7.68;2.20;;;;;;;;;;5008945;28;20038;-77
2023/12/31 15:05:01;;;;;;;9.83;1.97;;;;;;;;;;4943762;28;20031;-77
2023/12/31 15:11:39;;;;;;;9.97;2.13;;;;;;;;;;4917498;28;20031;-77
2023/12/31 15:14:36;;;;;;;10.73;1.43;;;;;;;;;;4915542;29;20112;-77
2023/12/31 15:17:05;;;;;;;9.20;1.53;;;;;;;;;;4945890;28;20042;-77
2023/12/31 15:19:33;;;;;;;11.63;1.87;;;;;;;;;;4941424;28;20056;-77
2023/12/31 15:22:11;;;;;;;17.33;2.10;;;;;;;;;;4948778;28;20066;-77
2023/12/31 15:24:46;;;;;;;6.90;1.23;;;;;;;;;;4933951;29;20039;-77
2023/12/31 15:27:15;;;;;;;12.67;2.00;;;;;;;;;;4946065;28;20028;-78
2023/12/31 15:30:09;;;;;;;9.43;1.80;;;;;;;;;;4946165;28;20024;-77
2023/12/31 15:32:46;;;;;;;12.20;2.37;;;;;;;;;;4998713;28;20035;-78
2023/12/31 15:35:53;;;;;;;9.90;1.73;;;;;;;;;;4991695;28;20058;-77
2023/12/31 15:38:39;;;;;;;11.07;1.87;;;;;;;;;;4991725;28;20019;-77
2023/12/31 15:41:22;;;;;;;9.70;1.77;;;;;;;;;;5007975;28;20021;-77
2023/12/31 15:43:53;;;;;;;12.90;2.77;;;;;;;;;;4998487;28;20083;-77
2023/12/31 15:46:36;;;;;;;10.60;1.90;;;;;;;;;;5007232;28;20102;-78
2023/12/31 15:49:07;;;;;;;10.43;2.73;;;;;;;;;;4999157;28;20046;-77
2023/12/31 15:51:36;;;;;;;16.03;2.97;;;;;;;;;;4989423;28;20109;-77
2023/12/31 15:54:14;;;;;;;14.30;3.50;;;;;;;;;;5004476;28;20023;-78
2023/12/31 15:56:47;;;;;;;11.93;2.17;;;;;;;;;;5006343;28;20046;-77
2023/12/31 15:59:34;;;;;;;18.13;2.10;;;;;;;;;;4991390;28;20060;-77
2023/12/31 16:02:06;;;;;;;11.37;3.13;;;;;;;;;;4996297;28;20026;-78
2023/12/31 16:04:45;;;;;;;10.20;2.43;;;;;;;;;;5005828;28;20022;-77
2023/12/31 16:07:22;;;;;;;18.60;2.83;;;;;;;;;;4993456;28;20030;-78
2023/12/31 16:09:50;;;;;;;12.27;2.53;;;;;;;;;;4998414;28;20018;-77
2023/12/31 16:12:28;;;;;;;16.37;3.27;;;;;;;;;;5009888;28;20050;-78
2023/12/31 16:15:15;;;;;;;9.83;2.20;;;;;;;;;;5059979;23;20110;-79
2023/12/31 16:17:48;;;;;;;16.80;3.07;;;;;;;;;;4992475;28;20122;-77
2023/12/31 16:20:33;;;;;;;16.10;2.63;;;;;;;;;;4992315;28;20058;-76
2023/12/31 16:23:17;;;;;;;18.73;2.57;;;;;;;;;;5000515;28;20078;-77
2023/12/31 16:26:04;;;;;;;10.87;2.63;;;;;;;;;;4993394;28;20046;-77
2023/12/31 16:28:32;;;;;;;15.83;2.70;;;;;;;;;;4998610;28;20003;-78
2023/12/31 16:31:03;;;;;;;10.90;2.40;;;;;;;;;;4995120;28;20013;-78
2023/12/31 16:33:32;;;;;;;6.77;1.50;;;;;;;;;;5007250;28;20015;-77
2023/12/31 16:36:13;;;;;;;11.37;2.63;;;;;;;;;;4992658;28;20034;-77
2023/12/31 16:38:53;;;;;;;13.60;2.50;;;;;;;;;;4994671;28;20018;-77
2023/12/31 16:41:24;;;;;;;17.07;2.80;;;;;;;;;;5003913;28;20078;-77
2023/12/31 16:43:53;;;;;;;11.67;3.03;;;;;;;;;;5016472;23;20045;-76
2023/12/31 16:46:24;;;;;;;11.90;2.43;;;;;;;;;;4982827;28;20011;-77
2023/12/31 16:49:00;;;;;;;10.37;2.60;;;;;;;;;;4997157;28;20014;-77
2023/12/31 16:51:31;;;;;;;11.10;1.80;;;;;;;;;;4978214;28;20042;-77
2023/12/31 16:54:05;;;;;;;9.00;2.17;;;;;;;;;;4979820;28;20046;-77
2023/12/31 16:56:36;;;;;;;15.97;2.60;;;;;;;;;;4989884;28;20039;-78
2023/12/31 16:59:15;;;;;;;;;;;;;;;;;;;;;
2023/12/31 17:01:47;;;;;;;15.90;2.80;;;;;;;;;;4998652;28;20027;-78
2023/12/31 17:04:15;;;;;;;12.07;2.50;;;;;;;;;;4976180;28;20015;-77
2023/12/31 17:06:44;;;;;;;15.60;2.23;;;;;;;;;;4981921;28;20062;-77
2023/12/31 17:09:22;;;;;;;8.83;2.23;;;;;;;;;;4982443;28;20003;-76
2023/12/31 17:11:51;;;;;;;15.70;2.43;;;;;;;;;;4985029;28;20030;-77
2023/12/31 17:14:45;;;;;;;8.73;2.37;;;;;;;;;;4983004;28;20024;-77
2023/12/31 17:17:20;;;;;;;14.90;3.00;;;;;;;;;;4993719;28;20023;-76
2023/12/31 17:19:56;;;;;;;10.70;3.00;;;;;;;;;;4985655;28;20011;-76
2023/12/31 17:22:28;;;;;;;18.50;3.23;;;;;;;;;;5002534;28;20039;-77
2023/12/31 17:25:17;;;;;;;8.18;2.05;;;;;;;;;;4983705;28;20022;-77
2023/12/31 17:27:52;;;;;;;14.17;1.97;;;;;;;;;;4994153;28;20027;-77
2023/12/31 17:30:20;;;;;;;9.87;3.50;;;;;;;;;;5001868;28;20019;-77
2023/12/31 17:32:54;;;;;;;13.67;3.03;;;;;;;;;;4985535;28;20086;-76
2023/12/31 17:35:28;;;;;;;15.57;2.97;;;;;;;;;;4984973;28;20037;-77
2023/12/31 17:38:01;;;;;;;14.07;3.40;;;;;;;;;;4979044;28;20015;-76
2023/12/31 17:40:39;;;;;;;11.27;2.30;;;;;;;;;;5004913;28;20030;-77
2023/12/31 17:43:09;;;;;;;12.83;3.57;;;;;;;;;;4980477;28;20051;-77
2023/12/31 17:45:43;;;;;;;17.97;3.33;;;;;;;;;;5004136;28;20042;-76
2023/12/31 17:48:19;;;;;;;;;;;;;;;;;;;;;
2023/12/31 17:51:00;;;;;;;14.63;3.27;;;;;;;;;;4996402;28;20038;-77
2023/12/31 17:53:30;;;;;;;10.23;2.67;;;;;;;;;;4980299;28;20007;-77
2023/12/31 17:56:01;;;;;;;14.10;2.80;;;;;;;;;;4979925;28;20031;-77
2023/12/31 17:58:47;;;;;;;;;;;;;;;;;;;;;
2023/12/31 18:01:16;;;;;;;12.63;2.70;;;;;;;;;;5001549;28;20027;-76
2023/12/31 18:03:47;;;;;;;9.10;2.20;;;;;;;;;;4984188;28;20072;-77
2023/12/31 18:06:31;;;;;;;8.67;1.83;;;;;;;;;;4984821;28;20015;-77
2023/12/31 18:09:05;;;;;;;9.03;2.27;;;;;;;;;;4979126;28;20027;-77
2023/12/31 18:11:36;;;;;;;15.23;2.40;;;;;;;;;;4984578;28;20034;-77
2023/12/31 18:14:25;;;;;;;11.53;2.40;;;;;;;;;;4981667;28;20026;-79
2023/12/31 18:17:00;;;;;;;17.10;2.43;;;;;;;;;;4980970;28;20061;-78
2023/12/31 18:19:34;;;;;;;9.53;1.93;;;;;;;;;;4979715;28;20014;-76
2023/12/31 18:22:00;;;;;;;8.63;1.67;;;;;;;;;;4974219;28;20034;-76
2023/12/31 18:24:35;;;;;;;12.13;2.77;;;;;;;;;;4997812;28;20097;-77